Pagrindinis puslapis
METAR-TAF:

METAR-TAF

Oro uostai :

Takas, Tailandas

platuma: 16-53N, ilguma: 099-09E, Aukštis: 121 m

METAR: trūkstamas

Laikas: 20:48 (13:48 UTC)

Prognozė

Ataskaita buvo paskelbta 2 valandos ir 48 minutes, ne 11:00 UTC
Prognozė galioja nuo 20 metu 12 UTC su 21 metu 12 UTC
Vėjas 5 kt iš Rytų
Matomumas: 8000 m
Išsisklaidę debesys ne aukštis 2800 ft

TAF: VTPT 201100Z 2012/2112 08005KT 8000 SCT028

Orai ataskaitas ir orų prognozės (METAR, TAF).

turimą stotys yra geltonos ir raudonos taškus žemėlapyje.

Perkelti pele per norėdami pamatyti stoties vardą.

Tada spustelėkite, norėdami matyti oro stebėjimo ir prognozės.

Norėdami pakeisti žemėlapį: spustelėkite ant žalios mygtukų su juodo kryžiaus žemyn,; žalią mygtuką su brūkšneliu, jei norite nutolinti; arba žalių rodyklių gretimoms žemėlapius.


METAR-TAF: